Time;durP1;ratioP1;P1;durP2;ratioP2;P2;SDS_P1;SDS_P2;PMS_P1;PMS_P2;Temp;Humidity;BMP_temperature;BMP_pressure;BME280_temperature;BME280_humidity;BME280_pressure;Samples;Min_cycle;Max_cycle;Signal;HPM_P1;HPM_P2
2023/04/09 00:17:11;;;;;;;7.43;5.97;;;;;;;;;;5066231;28;20229;-28
2023/04/09 00:42:35;;;;;;;8.57;6.80;;;;;;;;;;5028422;28;20213;-26
2023/04/09 01:07:18;;;;;;;8.60;7.20;;;;;;;;;;5072072;28;20209;-28
2023/04/09 01:13:28;;;;;;;7.73;6.80;;;;;;;;;;4963115;28;20225;-37
2023/04/09 01:19:29;;;;;;;7.97;6.83;;;;;;;;;;4976748;28;20216;-29
2023/04/09 01:28:30;;;;;;;7.87;6.63;;;;;;;;;;4989329;28;20231;-29
2023/04/09 01:36:54;;;;;;;10.03;7.17;;;;;;;;;;5073484;28;20245;-36
2023/04/09 01:39:30;;;;;;;9.00;6.87;;;;;;;;;;5075437;28;20213;-38
2023/04/09 02:20:37;;;;;;;8.10;6.37;;;;;;;;;;5027709;28;20295;-26
2023/04/09 02:23:25;;;;;;;8.43;6.70;;;;;;;;;;5085627;28;20228;-29
2023/04/09 02:32:35;;;;;;;;;;;;;;;;;;;;;
2023/04/09 02:40:42;;;;;;;7.57;6.70;;;;;;;;;;5017032;28;20219;-27
2023/04/09 02:47:33;;;;;;;;;;;;;;;;;;;;;
2023/04/09 03:14:46;;;;;;;;;;;;;;;;;;;;;
2023/04/09 03:55:07;;;;;;;6.63;5.83;;;;;;;;;;5082458;22;20261;-32
2023/04/09 03:57:34;;;;;;;8.67;5.90;;;;;;;;;;5090102;28;20211;-32
2023/04/09 04:00:03;;;;;;;5.73;5.20;;;;;;;;;;5092564;28;20197;-32
2023/04/09 04:02:32;;;;;;;7.30;5.73;;;;;;;;;;5066321;28;20716;-33
2023/04/09 04:04:59;;;;;;;5.67;5.10;;;;;;;;;;5089399;28;20282;-33
2023/04/09 04:07:26;;;;;;;8.60;5.80;;;;;;;;;;5089901;28;20222;-31
2023/04/09 04:09:53;;;;;;;6.40;5.30;;;;;;;;;;5080790;28;20201;-32
2023/04/09 04:12:22;;;;;;;5.50;4.97;;;;;;;;;;5079289;28;20550;-34
2023/04/09 04:14:49;;;;;;;7.67;5.60;;;;;;;;;;5090079;28;20201;-29
2023/04/09 04:17:16;;;;;;;7.37;6.17;;;;;;;;;;5083643;28;20622;-32
2023/04/09 04:19:43;;;;;;;8.43;5.50;;;;;;;;;;5088228;28;20211;-29
2023/04/09 04:22:10;;;;;;;7.53;5.67;;;;;;;;;;5089267;28;20212;-32
2023/04/09 04:24:37;;;;;;;6.53;5.23;;;;;;;;;;5087517;28;20228;-29
2023/04/09 04:27:05;;;;;;;6.53;5.83;;;;;;;;;;5089455;28;20200;-30
2023/04/09 04:29:34;;;;;;;8.37;6.00;;;;;;;;;;5090093;28;20291;-31
2023/04/09 04:32:01;;;;;;;7.30;5.30;;;;;;;;;;5088472;28;20212;-32
2023/04/09 04:34:28;;;;;;;6.13;4.97;;;;;;;;;;5092878;28;20235;-34
2023/04/09 04:36:55;;;;;;;6.37;5.23;;;;;;;;;;5093340;28;20205;-34
2023/04/09 04:39:22;;;;;;;6.03;5.00;;;;;;;;;;5089581;28;20214;-31
2023/04/09 04:41:49;;;;;;;8.83;5.53;;;;;;;;;;5084479;28;20196;-34
2023/04/09 04:44:17;;;;;;;7.53;5.90;;;;;;;;;;5092820;28;20224;-31
2023/04/09 04:46:45;;;;;;;7.50;5.50;;;;;;;;;;5088339;28;20315;-32
2023/04/09 04:49:12;;;;;;;7.30;5.30;;;;;;;;;;5091654;28;20207;-31
2023/04/09 04:51:39;;;;;;;7.13;5.60;;;;;;;;;;5091706;28;20215;-33
2023/04/09 04:54:06;;;;;;;6.57;5.87;;;;;;;;;;5089348;28;20232;-28
2023/04/09 04:56:33;;;;;;;8.33;5.57;;;;;;;;;;5090094;28;20208;-31
2023/04/09 04:59:01;;;;;;;7.53;5.73;;;;;;;;;;5095865;28;20232;-29
2023/04/09 05:01:28;;;;;;;8.73;5.37;;;;;;;;;;5086010;28;20216;-31
2023/04/09 05:03:56;;;;;;;7.47;5.90;;;;;;;;;;5094050;28;20225;-31
2023/04/09 05:06:23;;;;;;;6.53;5.53;;;;;;;;;;5095313;28;20224;-32
2023/04/09 05:08:50;;;;;;;6.17;5.57;;;;;;;;;;5095658;28;20220;-32
2023/04/09 05:11:18;;;;;;;7.07;5.63;;;;;;;;;;5090924;28;20201;-33
2023/04/09 05:13:45;;;;;;;5.80;5.20;;;;;;;;;;5094995;28;20227;-30
2023/04/09 05:16:17;;;;;;;6.63;5.50;;;;;;;;;;5087306;28;20205;-33
2023/04/09 05:18:44;;;;;;;6.20;5.23;;;;;;;;;;5094718;28;20200;-29
2023/04/09 05:21:12;;;;;;;7.30;5.57;;;;;;;;;;5095263;28;20200;-32
2023/04/09 05:23:40;;;;;;;7.67;6.00;;;;;;;;;;5083854;28;20311;-33
2023/04/09 05:26:07;;;;;;;8.30;6.37;;;;;;;;;;5091173;28;20213;-32
2023/04/09 05:28:34;;;;;;;6.77;5.83;;;;;;;;;;5089481;28;20196;-31
2023/04/09 05:31:01;;;;;;;6.37;5.67;;;;;;;;;;5089165;28;20205;-35
2023/04/09 05:33:28;;;;;;;7.43;6.57;;;;;;;;;;5088334;28;20315;-29
2023/04/09 05:35:55;;;;;;;8.50;6.53;;;;;;;;;;5094323;28;20199;-33
2023/04/09 05:38:24;;;;;;;6.73;6.00;;;;;;;;;;5094208;28;20204;-29
2023/04/09 05:40:52;;;;;;;8.73;6.43;;;;;;;;;;5090830;28;20209;-31
2023/04/09 05:43:19;;;;;;;8.50;6.43;;;;;;;;;;5081242;28;20221;-29
2023/04/09 05:45:47;;;;;;;8.17;6.97;;;;;;;;;;5085062;28;20270;-33
2023/04/09 05:48:15;;;;;;;7.60;6.40;;;;;;;;;;5090819;28;20258;-30
2023/04/09 05:50:43;;;;;;;7.57;6.20;;;;;;;;;;5091551;28;20208;-39
2023/04/09 05:53:10;;;;;;;8.70;6.20;;;;;;;;;;5094623;28;20230;-31
2023/04/09 05:55:38;;;;;;;8.80;6.50;;;;;;;;;;5083650;28;20209;-31
2023/04/09 05:58:06;;;;;;;7.63;6.33;;;;;;;;;;5092559;28;20207;-32
2023/04/09 06:00:33;;;;;;;8.53;7.00;;;;;;;;;;5091636;28;20201;-31
2023/04/09 06:03:00;;;;;;;8.13;6.77;;;;;;;;;;5088337;28;20232;-34
2023/04/09 06:05:34;;;;;;;7.80;6.53;;;;;;;;;;5093249;28;20212;-31
2023/04/09 06:08:18;;;;;;;7.50;6.40;;;;;;;;;;5093345;28;20190;-30
2023/04/09 06:10:47;;;;;;;9.50;7.07;;;;;;;;;;5089065;28;20200;-33
2023/04/09 06:13:14;;;;;;;6.63;5.93;;;;;;;;;;5088445;28;20348;-29
2023/04/09 06:15:42;;;;;;;7.20;6.30;;;;;;;;;;5084320;28;20264;-30
2023/04/09 06:18:09;;;;;;;8.50;6.53;;;;;;;;;;5090967;28;20263;-33
2023/04/09 06:20:36;;;;;;;7.40;6.10;;;;;;;;;;5093667;28;20207;-32
2023/04/09 06:23:03;;;;;;;7.43;6.47;;;;;;;;;;5084383;28;20213;-29
2023/04/09 06:25:30;;;;;;;8.87;7.03;;;;;;;;;;5087512;28;20207;-31
2023/04/09 06:27:59;;;;;;;8.10;7.30;;;;;;;;;;5086911;28;20220;-31
2023/04/09 06:30:26;;;;;;;7.93;6.80;;;;;;;;;;5088886;28;20288;-32
2023/04/09 06:32:53;;;;;;;8.00;7.00;;;;;;;;;;5089575;28;20216;-32
2023/04/09 06:35:20;;;;;;;9.43;7.43;;;;;;;;;;5093379;28;20497;-30
2023/04/09 06:37:47;;;;;;;9.80;7.80;;;;;;;;;;5093778;28;20204;-30
2023/04/09 06:40:15;;;;;;;8.87;7.43;;;;;;;;;;5082467;28;20201;-31
2023/04/09 06:42:42;;;;;;;9.07;7.60;;;;;;;;;;5090282;28;20227;-32
2023/04/09 06:45:11;;;;;;;9.73;7.47;;;;;;;;;;5084938;28;20291;-33
2023/04/09 06:47:38;;;;;;;9.80;7.10;;;;;;;;;;5074684;28;20228;-29
2023/04/09 06:50:06;;;;;;;9.77;8.47;;;;;;;;;;5087342;28;20203;-30
2023/04/09 06:52:33;;;;;;;10.00;7.67;;;;;;;;;;5093509;28;20204;-30
2023/04/09 06:55:00;;;;;;;8.83;7.87;;;;;;;;;;5087767;28;20222;-32
2023/04/09 06:57:27;;;;;;;8.87;7.53;;;;;;;;;;5089324;28;20201;-30
2023/04/09 06:59:54;;;;;;;8.13;6.77;;;;;;;;;;5092640;28;20201;-33
2023/04/09 07:02:23;;;;;;;7.83;6.90;;;;;;;;;;5083077;28;20208;-34
2023/04/09 07:04:50;;;;;;;9.47;7.07;;;;;;;;;;5092113;28;20200;-31
2023/04/09 07:07:17;;;;;;;9.20;7.93;;;;;;;;;;5078878;28;20221;-33
2023/04/09 07:09:45;;;;;;;9.00;8.10;;;;;;;;;;5086598;28;20294;-32
2023/04/09 07:12:12;;;;;;;9.53;8.53;;;;;;;;;;5083495;28;20204;-34
2023/04/09 07:14:39;;;;;;;9.80;7.27;;;;;;;;;;5086188;28;20218;-32
2023/04/09 07:17:06;;;;;;;9.50;8.13;;;;;;;;;;5085850;28;20225;-30
2023/04/09 07:19:37;;;;;;;10.03;8.20;;;;;;;;;;5087352;28;20207;-31
2023/04/09 07:22:04;;;;;;;8.90;7.70;;;;;;;;;;5083236;28;20196;-33
2023/04/09 07:24:32;;;;;;;9.80;7.47;;;;;;;;;;5092172;28;20223;-32
2023/04/09 07:27:00;;;;;;;9.63;8.63;;;;;;;;;;5078105;28;20236;-31
2023/04/09 07:29:27;;;;;;;8.60;7.70;;;;;;;;;;5088264;28;20229;-33
2023/04/09 07:31:54;;;;;;;9.27;8.23;;;;;;;;;;5077607;28;20200;-31
2023/04/09 07:34:21;;;;;;;10.87;9.50;;;;;;;;;;5091990;28;20323;-33
2023/04/09 07:36:50;;;;;;;9.90;8.73;;;;;;;;;;5073141;28;20199;-31
2023/04/09 07:39:17;;;;;;;12.77;9.47;;;;;;;;;;5072064;28;20233;-33
2023/04/09 07:41:44;;;;;;;10.27;8.73;;;;;;;;;;5087975;28;20205;-32
2023/04/09 07:44:12;;;;;;;9.93;8.90;;;;;;;;;;5091121;28;20216;-34
2023/04/09 07:46:40;;;;;;;10.40;9.23;;;;;;;;;;5079904;28;20225;-33
2023/04/09 07:49:07;;;;;;;10.33;8.87;;;;;;;;;;5091074;28;20249;-33
2023/04/09 07:51:34;;;;;;;10.03;8.00;;;;;;;;;;5090616;28;20206;-32
2023/04/09 07:54:04;;;;;;;11.37;9.30;;;;;;;;;;5092098;28;20240;-30
2023/04/09 07:56:31;;;;;;;9.17;8.27;;;;;;;;;;5084768;28;20207;-33
2023/04/09 07:58:58;;;;;;;8.87;7.13;;;;;;;;;;5090808;28;20215;-31
2023/04/09 08:01:25;;;;;;;10.30;7.83;;;;;;;;;;5083727;28;20229;-35
2023/04/09 08:03:52;;;;;;;10.67;8.10;;;;;;;;;;5092236;28;20278;-32
2023/04/09 08:06:19;;;;;;;9.60;8.30;;;;;;;;;;5096529;28;20578;-29
2023/04/09 08:08:46;;;;;;;10.10;8.57;;;;;;;;;;5096775;28;20209;-34
2023/04/09 08:11:15;;;;;;;8.23;7.40;;;;;;;;;;5086678;28;20210;-32
2023/04/09 08:13:42;;;;;;;11.93;9.53;;;;;;;;;;5097765;28;20220;-32
2023/04/09 08:16:09;;;;;;;10.80;9.20;;;;;;;;;;5091120;28;20201;-33
2023/04/09 08:18:36;;;;;;;8.80;7.90;;;;;;;;;;5094305;28;20208;-33
2023/04/09 08:21:05;;;;;;;9.10;7.90;;;;;;;;;;5097444;28;20208;-32
2023/04/09 08:23:32;;;;;;;8.10;7.00;;;;;;;;;;5097229;28;20216;-30
2023/04/09 08:25:59;;;;;;;7.87;7.07;;;;;;;;;;5089860;28;20207;-31
2023/04/09 08:28:28;;;;;;;10.83;7.60;;;;;;;;;;5090766;28;20292;-30
2023/04/09 08:30:55;;;;;;;8.53;7.60;;;;;;;;;;5090998;28;20196;-31
2023/04/09 08:33:22;;;;;;;8.57;6.97;;;;;;;;;;5089833;28;20569;-32
2023/04/09 08:35:49;;;;;;;9.37;7.23;;;;;;;;;;5084798;28;20197;-34
2023/04/09 08:38:16;;;;;;;7.90;6.07;;;;;;;;;;5090122;28;20200;-31
2023/04/09 08:40:43;;;;;;;11.13;8.63;;;;;;;;;;5091943;28;20205;-34
2023/04/09 08:43:11;;;;;;;8.50;7.10;;;;;;;;;;5094901;28;20213;-33
2023/04/09 08:45:40;;;;;;;7.87;7.07;;;;;;;;;;5091459;28;20502;-31
2023/04/09 08:48:11;;;;;;;8.40;7.50;;;;;;;;;;5089884;28;20254;-32
2023/04/09 08:50:38;;;;;;;9.10;8.20;;;;;;;;;;5095121;28;20211;-36
2023/04/09 08:53:07;;;;;;;9.27;7.93;;;;;;;;;;5094292;28;20252;-31
2023/04/09 08:55:36;;;;;;;9.10;8.20;;;;;;;;;;5077688;28;20216;-32
2023/04/09 08:58:06;;;;;;;9.27;8.27;;;;;;;;;;5090262;28;20287;-31
2023/04/09 09:00:33;;;;;;;7.70;6.70;;;;;;;;;;5088911;28;20213;-32
2023/04/09 09:03:06;;;;;;;6.63;6.03;;;;;;;;;;5085499;28;20251;-33
2023/04/09 09:05:37;;;;;;;7.80;7.00;;;;;;;;;;5092232;28;20849;-32
2023/04/09 09:08:04;;;;;;;7.50;6.70;;;;;;;;;;5095105;28;20495;-31
2023/04/09 09:10:38;;;;;;;7.00;6.30;;;;;;;;;;5087116;28;20214;-31
2023/04/09 09:13:16;;;;;;;7.47;6.40;;;;;;;;;;5081926;28;20223;-32
2023/04/09 09:15:45;;;;;;;7.50;6.70;;;;;;;;;;5094321;28;20201;-33
2023/04/09 09:18:14;;;;;;;7.10;6.33;;;;;;;;;;5090583;28;20261;-33
2023/04/09 09:23:11;;;;;;;7.67;6.87;;;;;;;;;;5052626;28;20309;-43
2023/04/09 09:25:39;;;;;;;6.93;6.23;;;;;;;;;;5042200;28;20670;-41
2023/04/09 09:28:10;;;;;;;6.80;6.03;;;;;;;;;;5039980;28;20224;-40
2023/04/09 09:30:38;;;;;;;7.40;6.60;;;;;;;;;;5046198;28;20202;-42
2023/04/09 09:33:06;;;;;;;7.70;6.90;;;;;;;;;;5044714;28;20229;-42
2023/04/09 09:35:49;;;;;;;6.67;5.93;;;;;;;;;;5049358;28;20572;-41
2023/04/09 09:38:16;;;;;;;8.10;6.30;;;;;;;;;;5047658;28;20225;-38
2023/04/09 09:40:43;;;;;;;8.07;6.63;;;;;;;;;;5040791;28;20210;-38
2023/04/09 09:43:10;;;;;;;7.57;6.77;;;;;;;;;;5048713;28;20219;-39
2023/04/09 09:45:38;;;;;;;7.87;6.47;;;;;;;;;;5045472;28;20212;-41
2023/04/09 09:48:05;;;;;;;7.13;6.00;;;;;;;;;;5045537;28;20230;-43
2023/04/09 09:50:35;;;;;;;5.77;5.27;;;;;;;;;;5049045;28;20207;-41
2023/04/09 09:53:05;;;;;;;6.63;5.93;;;;;;;;;;5051123;28;20225;-42
2023/04/09 09:55:33;;;;;;;7.27;6.07;;;;;;;;;;5045858;28;20199;-44
2023/04/09 10:00:33;;;;;;;5.87;5.27;;;;;;;;;;5043486;28;20333;-35
2023/04/09 10:03:17;;;;;;;6.33;5.70;;;;;;;;;;5052348;28;20226;-33
2023/04/09 10:05:50;;;;;;;6.20;5.53;;;;;;;;;;5035394;28;20224;-33
2023/04/09 10:08:25;;;;;;;5.70;5.17;;;;;;;;;;5046443;28;20220;-34
2023/04/09 10:10:59;;;;;;;5.67;5.17;;;;;;;;;;5044622;28;20208;-34
2023/04/09 10:13:33;;;;;;;6.07;5.47;;;;;;;;;;5043267;28;20243;-36
2023/04/09 10:16:10;;;;;;;5.40;4.90;;;;;;;;;;5045537;28;20203;-34
2023/04/09 10:18:46;;;;;;;4.83;4.30;;;;;;;;;;5320834;22;20246;-28
2023/04/09 10:21:38;;;;;;;6.53;5.90;;;;;;;;;;5061733;28;20204;-27
2023/04/09 10:24:57;;;;;;;5.97;4.43;;;;;;;;;;5070225;28;20223;-29
2023/04/09 10:27:51;;;;;;;4.93;4.53;;;;;;;;;;5067996;28;20251;-28
2023/04/09 10:30:45;;;;;;;4.63;4.23;;;;;;;;;;5059124;28;20210;-29
2023/04/09 10:33:40;;;;;;;4.77;4.37;;;;;;;;;;5060463;28;20232;-30
2023/04/09 10:36:14;;;;;;;5.07;4.57;;;;;;;;;;5072189;28;20207;-28
2023/04/09 10:38:49;;;;;;;4.83;4.33;;;;;;;;;;5073417;28;20236;-27
2023/04/09 10:41:30;;;;;;;4.23;3.93;;;;;;;;;;5070761;28;20203;-30
2023/04/09 10:44:01;;;;;;;5.00;4.50;;;;;;;;;;5065025;28;20212;-27
2023/04/09 10:46:39;;;;;;;4.80;4.30;;;;;;;;;;5070798;28;20213;-27
2023/04/09 10:49:38;;;;;;;4.37;3.97;;;;;;;;;;5071959;28;20203;-27
2023/04/09 10:52:09;;;;;;;3.77;3.47;;;;;;;;;;5152156;22;20665;-27
2023/04/09 10:54:48;;;;;;;4.43;3.60;;;;;;;;;;5074552;28;20242;-27
2023/04/09 10:57:25;;;;;;;8.40;3.93;;;;;;;;;;5074193;28;20204;-29
2023/04/09 10:59:56;;;;;;;3.93;3.63;;;;;;;;;;5072767;28;20213;-26
2023/04/09 11:07:53;;;;;;;4.97;4.47;;;;;;;;;;5038118;28;20229;-33
2023/04/09 11:13:08;;;;;;;4.50;4.10;;;;;;;;;;5668340;22;20238;-33
2023/04/09 11:15:43;;;;;;;4.80;4.30;;;;;;;;;;5050927;28;20231;-33
2023/04/09 11:18:28;;;;;;;4.40;4.00;;;;;;;;;;5040012;28;20218;-37
2023/04/09 11:21:02;;;;;;;4.83;4.37;;;;;;;;;;5033194;28;20208;-36
2023/04/09 11:31:29;;;;;;;4.23;3.83;;;;;;;;;;5071063;28;20245;-27
2023/04/09 11:33:57;;;;;;;4.93;3.83;;;;;;;;;;5054446;28;20226;-28
2023/04/09 11:36:29;;;;;;;4.80;4.27;;;;;;;;;;5068629;28;20270;-28
2023/04/09 11:39:17;;;;;;;5.17;4.43;;;;;;;;;;5055997;28;20288;-30
2023/04/09 11:41:48;;;;;;;4.67;4.07;;;;;;;;;;5064226;28;20217;-26
2023/04/09 11:44:16;;;;;;;4.47;4.07;;;;;;;;;;5061766;28;20225;-29
2023/04/09 11:46:50;;;;;;;4.40;4.00;;;;;;;;;;5052416;28;20207;-26
2023/04/09 11:49:22;;;;;;;4.40;4.00;;;;;;;;;;5062988;28;20225;-27
2023/04/09 11:51:57;;;;;;;4.57;4.00;;;;;;;;;;5060619;28;20275;-28
2023/04/09 11:54:25;;;;;;;4.37;3.97;;;;;;;;;;5057726;28;20233;-30
2023/04/09 11:56:55;;;;;;;4.30;3.90;;;;;;;;;;5055884;28;20285;-29
2023/04/09 11:59:22;;;;;;;4.30;3.70;;;;;;;;;;5052205;28;20202;-26
2023/04/09 12:02:01;;;;;;;4.00;3.57;;;;;;;;;;5064176;28;20363;-28
2023/04/09 12:04:43;;;;;;;4.20;3.80;;;;;;;;;;5064226;28;20226;-26
2023/04/09 12:07:26;;;;;;;4.10;3.70;;;;;;;;;;5069739;28;20229;-28
2023/04/09 12:10:09;;;;;;;3.97;3.47;;;;;;;;;;5062515;28;20201;-29
2023/04/09 12:12:45;;;;;;;4.37;3.50;;;;;;;;;;5081653;22;20212;-27
2023/04/09 12:15:29;;;;;;;4.13;3.40;;;;;;;;;;5105442;28;20254;-28
2023/04/09 12:18:21;;;;;;;3.60;3.30;;;;;;;;;;5105758;28;20210;-27
2023/04/09 12:21:01;;;;;;;3.67;3.37;;;;;;;;;;5112053;28;20266;-26
2023/04/09 12:23:37;;;;;;;4.87;3.23;;;;;;;;;;5096614;28;20233;-27
2023/04/09 12:26:14;;;;;;;3.60;3.30;;;;;;;;;;5089897;28;20228;-30
2023/04/09 12:28:45;;;;;;;3.37;3.07;;;;;;;;;;5083726;28;20229;-29
2023/04/09 12:39:31;;;;;;;3.40;3.10;;;;;;;;;;5070746;28;20229;-38
2023/04/09 12:42:06;;;;;;;3.77;3.37;;;;;;;;;;5062566;28;20217;-36
2023/04/09 12:44:43;;;;;;;3.27;2.97;;;;;;;;;;5064914;28;20249;-37
2023/04/09 12:47:38;;;;;;;3.53;3.23;;;;;;;;;;5068338;28;20207;-34
2023/04/09 12:50:21;;;;;;;3.57;3.27;;;;;;;;;;5066540;28;20238;-39
2023/04/09 12:53:00;;;;;;;4.57;3.07;;;;;;;;;;5075828;28;20242;-39
2023/04/09 12:55:38;;;;;;;3.63;3.33;;;;;;;;;;5068437;28;20271;-35
2023/04/09 12:58:17;;;;;;;3.43;3.03;;;;;;;;;;5070617;28;20249;-37
2023/04/09 13:00:56;;;;;;;4.20;3.80;;;;;;;;;;5072981;28;20207;-41
2023/04/09 13:03:33;;;;;;;3.70;3.40;;;;;;;;;;5066307;28;20221;-37
2023/04/09 13:11:30;;;;;;;4.50;3.90;;;;;;;;;;5067184;28;20263;-33
2023/04/09 13:14:05;;;;;;;3.50;3.20;;;;;;;;;;5063810;28;20230;-35
2023/04/09 13:19:25;;;;;;;4.40;3.77;;;;;;;;;;5059681;28;20214;-34
2023/04/09 13:22:00;;;;;;;5.20;3.90;;;;;;;;;;5054760;28;20206;-33
2023/04/09 13:27:10;;;;;;;3.40;3.10;;;;;;;;;;5034205;28;20226;-33
2023/04/09 13:34:58;;;;;;;3.67;3.37;;;;;;;;;;5074183;28;20314;-29
2023/04/09 13:37:32;;;;;;;4.33;3.93;;;;;;;;;;5076009;28;20235;-28
2023/04/09 13:42:44;;;;;;;5.00;4.30;;;;;;;;;;5090631;28;20213;-34
2023/04/09 14:04:14;;;;;;;4.93;4.43;;;;;;;;;;5070473;28;20236;-36
2023/04/09 14:09:51;;;;;;;4.77;4.30;;;;;;;;;;5075248;28;20232;-34
2023/04/09 14:15:21;;;;;;;5.17;4.17;;;;;;;;;;5073524;28;20211;-32
2023/04/09 14:18:12;;;;;;;5.33;4.67;;;;;;;;;;5083054;28;20205;-33
2023/04/09 14:23:44;;;;;;;4.27;3.67;;;;;;;;;;5094462;28;20239;-34
2023/04/09 14:26:17;;;;;;;4.13;3.73;;;;;;;;;;5077643;28;20248;-35
2023/04/09 14:28:57;;;;;;;3.70;3.30;;;;;;;;;;5084342;28;20266;-42
2023/04/09 14:31:45;;;;;;;4.47;3.80;;;;;;;;;;5089845;28;20207;-35
2023/04/09 14:34:19;;;;;;;4.17;3.37;;;;;;;;;;5083876;22;20281;-35
2023/04/09 14:36:58;;;;;;;4.10;3.27;;;;;;;;;;5074175;28;20251;-36
2023/04/09 14:39:48;;;;;;;4.10;3.70;;;;;;;;;;5072192;28;20225;-33
2023/04/09 14:42:28;;;;;;;3.70;3.20;;;;;;;;;;5069303;28;20204;-33
2023/04/09 14:45:09;;;;;;;4.60;4.03;;;;;;;;;;5046569;28;20235;-33
2023/04/09 14:47:41;;;;;;;4.23;3.80;;;;;;;;;;5053961;28;20220;-35
2023/04/09 14:50:13;;;;;;;4.00;3.60;;;;;;;;;;5054090;28;20222;-36
2023/04/09 14:52:54;;;;;;;4.07;3.40;;;;;;;;;;5053567;28;20210;-33
2023/04/09 14:55:26;;;;;;;5.00;4.20;;;;;;;;;;5051741;28;20303;-36
2023/04/09 14:57:55;;;;;;;4.37;3.93;;;;;;;;;;5052934;28;20205;-36
2023/04/09 15:00:27;;;;;;;6.07;4.00;;;;;;;;;;5050257;28;20300;-38
2023/04/09 15:02:58;;;;;;;5.67;4.30;;;;;;;;;;5050133;28;20236;-39
2023/04/09 15:05:32;;;;;;;5.80;4.97;;;;;;;;;;5053161;28;20197;-38
2023/04/09 15:10:55;;;;;;;4.40;3.87;;;;;;;;;;5047093;28;20272;-35
2023/04/09 15:13:26;;;;;;;4.03;3.57;;;;;;;;;;5053382;28;20313;-38
2023/04/09 15:15:58;;;;;;;4.43;3.80;;;;;;;;;;5056336;28;20255;-33
2023/04/09 15:18:35;;;;;;;5.17;3.50;;;;;;;;;;5063655;28;20195;-32
2023/04/09 15:21:14;;;;;;;4.53;4.13;;;;;;;;;;5066831;28;20270;-34
2023/04/09 15:23:49;;;;;;;8.23;4.20;;;;;;;;;;5071568;28;20753;-33
2023/04/09 15:26:22;;;;;;;4.20;3.80;;;;;;;;;;5061988;28;20266;-35
2023/04/09 15:28:58;;;;;;;5.30;3.90;;;;;;;;;;5056420;28;20275;-35
2023/04/09 15:36:44;;;;;;;4.37;3.83;;;;;;;;;;5092088;28;20234;-37
2023/04/09 15:39:18;;;;;;;4.20;3.70;;;;;;;;;;5091584;28;20232;-36
2023/04/09 15:41:54;;;;;;;4.93;3.73;;;;;;;;;;5091076;28;20225;-38
2023/04/09 15:44:29;;;;;;;4.90;3.77;;;;;;;;;;5068627;28;20224;-37
2023/04/09 15:46:58;;;;;;;4.17;3.77;;;;;;;;;;5070494;28;20216;-38
2023/04/09 15:49:35;;;;;;;3.83;3.43;;;;;;;;;;5073067;28;20221;-35
2023/04/09 15:52:11;;;;;;;3.73;3.33;;;;;;;;;;5073367;28;20211;-31
2023/04/09 16:05:48;;;;;;;4.10;3.63;;;;;;;;;;5091700;28;20215;-34
2023/04/09 16:11:19;;;;;;;3.83;3.40;;;;;;;;;;5091351;28;20202;-38
2023/04/09 16:13:59;;;;;;;3.33;3.03;;;;;;;;;;5092820;28;20226;-36
2023/04/09 16:16:45;;;;;;;3.40;3.10;;;;;;;;;;5084779;28;20209;-40
2023/04/09 16:19:27;;;;;;;4.43;3.73;;;;;;;;;;5086032;28;20199;-37
2023/04/09 16:22:16;;;;;;;4.67;3.77;;;;;;;;;;5072829;28;20204;-38
2023/04/09 16:25:04;;;;;;;3.47;3.17;;;;;;;;;;5074540;28;20225;-41
2023/04/09 16:27:42;;;;;;;4.47;3.90;;;;;;;;;;5088978;28;20262;-33
2023/04/09 16:30:36;;;;;;;3.73;3.37;;;;;;;;;;5082652;28;20223;-36
2023/04/09 16:33:11;;;;;;;4.40;4.00;;;;;;;;;;5089382;28;20223;-40
2023/04/09 16:35:41;;;;;;;4.40;3.57;;;;;;;;;;5088928;28;20211;-37
2023/04/09 16:38:12;;;;;;;3.57;3.27;;;;;;;;;;5095929;28;20208;-42
2023/04/09 16:40:41;;;;;;;4.20;3.80;;;;;;;;;;5086913;28;20223;-32
2023/04/09 16:43:16;;;;;;;4.43;3.97;;;;;;;;;;5082418;28;20222;-37
2023/04/09 16:45:56;;;;;;;4.20;3.80;;;;;;;;;;5087588;28;20205;-34
2023/04/09 16:48:32;;;;;;;3.90;3.50;;;;;;;;;;5088979;28;20225;-37
2023/04/09 16:51:04;;;;;;;4.53;3.60;;;;;;;;;;5083865;28;20210;-35
2023/04/09 16:53:32;;;;;;;4.93;3.57;;;;;;;;;;5079946;28;20226;-38
2023/04/09 16:56:01;;;;;;;5.83;3.77;;;;;;;;;;5091457;28;20205;-33
2023/04/09 16:58:35;;;;;;;5.63;4.50;;;;;;;;;;5095651;28;20210;-39
2023/04/09 17:01:06;;;;;;;5.57;4.83;;;;;;;;;;5092071;28;20221;-38
2023/04/09 17:03:45;;;;;;;5.57;4.30;;;;;;;;;;5086994;28;20313;-29
2023/04/09 17:06:19;;;;;;;3.83;3.53;;;;;;;;;;5095102;28;20314;-38
2023/04/09 17:08:52;;;;;;;4.43;4.03;;;;;;;;;;5094750;28;20246;-37
2023/04/09 17:11:22;;;;;;;4.53;4.10;;;;;;;;;;5093360;28;20205;-36
2023/04/09 17:13:50;;;;;;;4.60;3.93;;;;;;;;;;5087234;28;20219;-36
2023/04/09 17:16:17;;;;;;;5.13;4.20;;;;;;;;;;5107406;22;20224;-26
2023/04/09 17:18:45;;;;;;;4.87;4.33;;;;;;;;;;5104225;28;20209;-27
2023/04/09 17:21:13;;;;;;;4.53;3.97;;;;;;;;;;5108273;28;20205;-29
2023/04/09 17:23:41;;;;;;;4.30;3.90;;;;;;;;;;5100636;28;20217;-29
2023/04/09 17:26:08;;;;;;;4.83;4.00;;;;;;;;;;5081259;28;20224;-27
2023/04/09 17:28:35;;;;;;;4.63;3.97;;;;;;;;;;5080579;28;20246;-28
2023/04/09 17:31:02;;;;;;;5.37;4.27;;;;;;;;;;5075059;28;20212;-27
2023/04/09 17:33:29;;;;;;;4.87;4.23;;;;;;;;;;5073535;28;20248;-30
2023/04/09 17:35:59;;;;;;;4.13;3.63;;;;;;;;;;5091241;28;20199;-28
2023/04/09 17:38:26;;;;;;;4.57;4.17;;;;;;;;;;5090696;28;20208;-26
2023/04/09 17:40:54;;;;;;;5.47;4.07;;;;;;;;;;5081258;28;20198;-27
2023/04/09 17:43:21;;;;;;;4.97;4.47;;;;;;;;;;5089687;28;20225;-30
2023/04/09 17:45:48;;;;;;;5.40;4.40;;;;;;;;;;5087878;28;20217;-27
2023/04/09 17:48:15;;;;;;;4.43;3.93;;;;;;;;;;5079140;28;20730;-27
2023/04/09 17:50:42;;;;;;;4.17;3.77;;;;;;;;;;5074042;28;20312;-30
2023/04/09 17:53:11;;;;;;;4.90;4.40;;;;;;;;;;5073904;28;20225;-28
2023/04/09 17:55:38;;;;;;;5.17;4.27;;;;;;;;;;5080044;28;20209;-31
2023/04/09 17:58:05;;;;;;;4.20;3.80;;;;;;;;;;5079623;28;20211;-26
2023/04/09 18:00:33;;;;;;;6.07;4.63;;;;;;;;;;5076259;28;20201;-30
2023/04/09 18:03:00;;;;;;;4.77;4.07;;;;;;;;;;5074795;28;20249;-29
2023/04/09 18:05:27;;;;;;;5.93;4.13;;;;;;;;;;5080342;28;20205;-31
2023/04/09 18:07:55;;;;;;;5.07;4.00;;;;;;;;;;5091313;28;20204;-29
2023/04/09 18:10:23;;;;;;;5.17;4.23;;;;;;;;;;5087741;28;20237;-28
2023/04/09 18:12:51;;;;;;;6.10;4.67;;;;;;;;;;5079354;28;20216;-27
2023/04/09 18:15:18;;;;;;;4.63;4.00;;;;;;;;;;5074991;28;20197;-28
2023/04/09 18:17:45;;;;;;;5.77;4.40;;;;;;;;;;5081834;28;20244;-29
2023/04/09 18:20:14;;;;;;;6.63;4.60;;;;;;;;;;5082195;28;20201;-25
2023/04/09 18:22:41;;;;;;;4.67;4.20;;;;;;;;;;5073543;28;20205;-28
2023/04/09 18:25:08;;;;;;;4.50;4.10;;;;;;;;;;5078706;28;20205;-31
2023/04/09 18:27:37;;;;;;;4.40;4.00;;;;;;;;;;5083226;28;20669;-30
2023/04/09 18:30:04;;;;;;;4.33;3.60;;;;;;;;;;5083542;28;20223;-29
2023/04/09 18:32:32;;;;;;;6.23;4.37;;;;;;;;;;5086181;28;20211;-28
2023/04/09 18:34:59;;;;;;;5.60;5.00;;;;;;;;;;5091214;28;20291;-29
2023/04/09 18:37:27;;;;;;;4.63;3.90;;;;;;;;;;5090999;28;20203;-29
2023/04/09 18:39:54;;;;;;;5.23;4.07;;;;;;;;;;5084913;28;20268;-31
2023/04/09 18:42:21;;;;;;;4.70;4.00;;;;;;;;;;5083550;28;20205;-29
2023/04/09 18:44:50;;;;;;;4.43;4.03;;;;;;;;;;5091155;28;20201;-25
2023/04/09 18:47:17;;;;;;;6.00;4.73;;;;;;;;;;5076369;28;20205;-29
2023/04/09 18:49:44;;;;;;;5.33;4.77;;;;;;;;;;5089290;28;20223;-32
2023/04/09 18:52:11;;;;;;;6.30;4.70;;;;;;;;;;5085606;28;20205;-29
2023/04/09 18:54:38;;;;;;;6.00;4.50;;;;;;;;;;5088569;28;20562;-28
2023/04/09 18:57:06;;;;;;;5.97;4.70;;;;;;;;;;5092201;28;20235;-26
2023/04/09 18:59:34;;;;;;;5.33;4.77;;;;;;;;;;5094318;28;20205;-27
2023/04/09 19:02:03;;;;;;;5.33;4.20;;;;;;;;;;5089555;28;20207;-27
2023/04/09 19:04:33;;;;;;;4.73;4.20;;;;;;;;;;5091058;28;20224;-28
2023/04/09 19:07:01;;;;;;;4.83;4.33;;;;;;;;;;5086865;28;20214;-27
2023/04/09 19:09:28;;;;;;;5.90;4.83;;;;;;;;;;5091534;28;20216;-28
2023/04/09 19:11:56;;;;;;;4.83;4.33;;;;;;;;;;5084819;28;20211;-32
2023/04/09 19:14:23;;;;;;;11.90;8.23;;;;;;;;;;5085027;28;20224;-29
2023/04/09 19:16:50;;;;;;;5.70;4.57;;;;;;;;;;5081519;28;20212;-26
2023/04/09 19:19:19;;;;;;;4.87;4.33;;;;;;;;;;5087502;28;20268;-29
2023/04/09 19:21:46;;;;;;;5.20;4.40;;;;;;;;;;5089577;28;20208;-27
2023/04/09 19:24:13;;;;;;;5.30;4.33;;;;;;;;;;5084424;28;20243;-30
2023/04/09 19:26:40;;;;;;;5.33;4.83;;;;;;;;;;5082497;28;20196;-30
2023/04/09 19:29:08;;;;;;;4.80;4.03;;;;;;;;;;5083608;28;20221;-30
2023/04/09 19:31:36;;;;;;;4.03;3.63;;;;;;;;;;5075199;28;20213;-28
2023/04/09 19:34:04;;;;;;;4.50;4.10;;;;;;;;;;5088472;28;20259;-27
2023/04/09 19:36:33;;;;;;;5.67;4.33;;;;;;;;;;5089680;28;20235;-32
2023/04/09 19:39:00;;;;;;;4.90;4.40;;;;;;;;;;5089694;28;20215;-29
2023/04/09 19:41:27;;;;;;;4.30;3.80;;;;;;;;;;5085163;28;20193;-28
2023/04/09 19:43:54;;;;;;;6.07;4.80;;;;;;;;;;5086525;28;20216;-31
2023/04/09 19:46:21;;;;;;;7.23;4.73;;;;;;;;;;5076809;28;20205;-29
2023/04/09 19:48:49;;;;;;;5.43;4.10;;;;;;;;;;5076400;28;20680;-29
2023/04/09 19:51:17;;;;;;;5.07;4.50;;;;;;;;;;5091325;28;20227;-28
2023/04/09 19:53:46;;;;;;;5.63;4.60;;;;;;;;;;5091224;28;20212;-28
2023/04/09 19:56:13;;;;;;;4.60;4.13;;;;;;;;;;5086318;28;20211;-27
2023/04/09 19:58:42;;;;;;;5.53;4.30;;;;;;;;;;5086148;28;20210;-27
2023/04/09 20:01:09;;;;;;;6.93;6.00;;;;;;;;;;5083756;28;20197;-27
2023/04/09 20:03:36;;;;;;;5.70;5.13;;;;;;;;;;5080218;28;20235;-30
2023/04/09 20:06:07;;;;;;;6.20;5.20;;;;;;;;;;5072013;28;20200;-26